createdAt,value
2019-02-12T00:00:25.786Z,7.31
2019-02-12T00:00:51.891Z,7.31
2019-02-12T00:01:17.995Z,7.32
2019-02-12T00:01:44.097Z,7.24
2019-02-12T00:02:10.206Z,7.35
2019-02-12T00:02:36.313Z,7.33
2019-02-12T00:03:02.413Z,7.4
2019-02-12T00:03:28.520Z,7.32
2019-02-12T00:03:54.675Z,7.31
2019-02-12T00:04:20.784Z,7.25
2019-02-12T00:04:46.893Z,7.32
2019-02-12T00:05:13.001Z,7.32
2019-02-12T00:05:39.108Z,7.28
2019-02-12T00:06:05.219Z,7.18
2019-02-12T00:06:31.317Z,7.29
2019-02-12T00:06:57.469Z,7.29
2019-02-12T00:07:23.595Z,7.32
2019-02-12T00:07:49.728Z,7.29
2019-02-12T00:08:15.833Z,7.29
2019-02-12T00:08:41.947Z,7.32
2019-02-12T00:09:08.073Z,7.31
2019-02-12T00:09:34.211Z,7.32
2019-02-12T00:10:00.385Z,7.31
2019-02-12T00:10:26.496Z,7.24
2019-02-12T00:10:52.659Z,7.15
2019-02-12T00:11:18.757Z,7.24
2019-02-12T00:11:44.923Z,7.18
2019-02-12T00:12:11.142Z,7.23
2019-02-12T00:12:37.269Z,7.31
2019-02-12T00:13:03.376Z,7.24
2019-02-12T00:13:29.476Z,7.14
2019-02-12T00:13:55.580Z,7.25
2019-02-12T00:14:21.686Z,7.13
2019-02-12T00:14:47.849Z,7.18
2019-02-12T00:15:13.942Z,7.2
2019-02-12T00:15:40.163Z,7.17
2019-02-12T00:16:06.293Z,7.24
2019-02-12T00:16:32.428Z,7.15
2019-02-12T00:16:58.538Z,7.24
2019-02-12T00:17:24.673Z,7.23
2019-02-12T00:17:50.798Z,7.24
2019-02-12T00:18:16.919Z,7.2
2019-02-12T00:18:43.049Z,7.11
2019-02-12T00:19:09.157Z,7.15
2019-02-12T00:19:35.286Z,7.13
2019-02-12T00:20:01.416Z,7.07
2019-02-12T00:20:27.540Z,7.11
2019-02-12T00:20:53.678Z,7.06
2019-02-12T00:21:20.801Z,7.1
2019-02-12T00:21:46.913Z,7.11
2019-02-12T00:22:13.058Z,7.06
2019-02-12T00:22:39.191Z,7.07
2019-02-12T00:23:05.363Z,7.17
2019-02-12T00:23:31.471Z,7.07
2019-02-12T00:23:57.577Z,6.97
2019-02-12T00:24:23.686Z,7.05
2019-02-12T00:24:49.790Z,7.05
2019-02-12T00:25:15.891Z,7.02
2019-02-12T00:25:42.059Z,7.13
2019-02-12T00:26:08.201Z,7.17
2019-02-12T00:26:34.311Z,7.1
2019-02-12T00:27:00.471Z,7.06
2019-02-12T00:27:26.728Z,7.13
2019-02-12T00:27:53.944Z,7
2019-02-12T00:28:20.043Z,7.1
2019-02-12T00:28:46.354Z,7.02
2019-02-12T00:29:12.467Z,6.99
2019-02-12T00:29:38.568Z,6.99
2019-02-12T00:30:04.725Z,6.97
2019-02-12T00:30:30.831Z,6.97
2019-02-12T00:30:56.937Z,6.97
2019-02-12T00:31:23.046Z,6.99
2019-02-12T00:31:49.152Z,6.96
2019-02-12T00:32:15.262Z,6.92
2019-02-12T00:32:41.432Z,6.87
2019-02-12T00:33:07.625Z,6.81
2019-02-12T00:33:33.712Z,6.81
2019-02-12T00:33:59.853Z,6.81
2019-02-12T00:34:25.956Z,6.82
2019-02-12T00:34:52.150Z,6.82
2019-02-12T00:35:18.260Z,6.85
2019-02-12T00:35:44.361Z,6.88
2019-02-12T00:36:10.474Z,6.92
2019-02-12T00:36:36.608Z,6.79
2019-02-12T00:37:02.706Z,6.77
2019-02-12T00:37:28.902Z,6.79
2019-02-12T00:37:55.079Z,6.78
2019-02-12T00:38:21.184Z,6.79
2019-02-12T00:38:47.322Z,6.75
2019-02-12T00:39:13.425Z,6.81
2019-02-12T00:39:39.525Z,6.78
2019-02-12T00:40:05.642Z,6.75
2019-02-12T00:40:31.747Z,6.72
2019-02-12T00:40:57.850Z,6.75
2019-02-12T00:41:24.051Z,6.75
2019-02-12T00:41:50.153Z,6.74
2019-02-12T00:42:16.265Z,6.7
2019-02-12T00:42:42.419Z,6.74
2019-02-12T00:43:08.521Z,6.77
2019-02-12T00:43:34.630Z,6.79
2019-02-12T00:44:00.730Z,6.74
2019-02-12T00:44:26.863Z,6.75
2019-02-12T00:44:52.964Z,6.88
2019-02-12T00:45:19.138Z,6.77
2019-02-12T00:45:45.317Z,6.82
2019-02-12T00:46:11.440Z,6.75
2019-02-12T00:46:37.660Z,6.79
2019-02-12T00:47:03.763Z,6.77
2019-02-12T00:47:29.877Z,6.77
2019-02-12T00:47:55.981Z,6.84
2019-02-12T00:48:22.194Z,6.77
2019-02-12T00:48:48.301Z,6.79
2019-02-12T00:49:14.464Z,6.77
2019-02-12T00:49:40.570Z,6.77
2019-02-12T00:50:06.671Z,6.77
2019-02-12T00:50:32.855Z,6.77
2019-02-12T00:50:58.958Z,6.81
2019-02-12T00:51:25.131Z,6.75
2019-02-12T00:51:51.230Z,6.82
2019-02-12T00:52:17.377Z,6.75
2019-02-12T00:52:43.483Z,6.84
2019-02-12T00:53:09.656Z,6.81
2019-02-12T00:53:35.764Z,6.79
2019-02-12T00:54:01.919Z,6.72
2019-02-12T00:54:29.045Z,6.79
2019-02-12T00:54:55.202Z,6.78
2019-02-12T00:55:21.339Z,6.81
2019-02-12T00:55:47.451Z,6.77
2019-02-12T00:56:13.581Z,6.82
2019-02-12T00:56:39.683Z,6.79
2019-02-12T00:57:05.785Z,6.84
2019-02-12T00:57:31.898Z,6.82
2019-02-12T00:57:57.997Z,6.79
2019-02-12T00:58:24.131Z,6.79
2019-02-12T00:58:50.238Z,6.81
2019-02-12T00:59:16.377Z,6.75
2019-02-12T00:59:42.479Z,6.75
2019-02-12T01:00:08.639Z,6.79
2019-02-12T01:00:34.747Z,6.75
2019-02-12T01:01:00.845Z,6.79
2019-02-12T01:01:26.980Z,6.84
2019-02-12T01:01:53.117Z,6.81
2019-02-12T01:02:19.223Z,6.81
2019-02-12T01:02:45.335Z,6.75
2019-02-12T01:03:11.465Z,6.79
2019-02-12T01:03:37.566Z,6.77
2019-02-12T01:04:03.697Z,6.69
2019-02-12T01:04:29.837Z,6.67
2019-02-12T01:04:55.940Z,6.74
2019-02-12T01:05:22.082Z,6.69
2019-02-12T01:05:48.177Z,6.59
2019-02-12T01:06:14.310Z,6.72
2019-02-12T01:06:40.441Z,6.6
2019-02-12T01:07:06.540Z,6.75
2019-02-12T01:07:32.677Z,6.7
2019-02-12T01:07:58.781Z,6.72
2019-02-12T01:08:24.893Z,6.72
2019-02-12T01:08:50.994Z,6.78
2019-02-12T01:09:17.104Z,6.77
2019-02-12T01:09:43.211Z,6.78
2019-02-12T01:10:09.320Z,6.74
2019-02-12T01:10:35.421Z,6.78
2019-02-12T01:11:01.556Z,6.77
2019-02-12T01:11:27.693Z,6.78
2019-02-12T01:11:53.856Z,6.75
2019-02-12T01:12:19.969Z,6.75
2019-02-12T01:12:46.071Z,6.7
2019-02-12T01:13:12.177Z,6.62
2019-02-12T01:13:38.284Z,6.77
2019-02-12T01:14:04.415Z,6.72
2019-02-12T01:14:30.522Z,6.63
2019-02-12T01:14:56.624Z,6.72
2019-02-12T01:15:22.773Z,6.74
2019-02-12T01:15:48.871Z,6.74
2019-02-12T01:16:15.000Z,6.72
2019-02-12T01:16:41.102Z,6.72
2019-02-12T01:17:07.219Z,6.74
2019-02-12T01:17:33.349Z,6.7
2019-02-12T01:17:59.484Z,6.75
2019-02-12T01:18:25.592Z,6.74
2019-02-12T01:18:51.687Z,6.72
2019-02-12T01:19:17.786Z,6.72
2019-02-12T01:19:43.895Z,6.72
2019-02-12T01:20:10.009Z,6.78
2019-02-12T01:20:36.116Z,6.78
2019-02-12T01:21:02.223Z,6.75
2019-02-12T01:21:30.342Z,6.74
2019-02-12T01:21:56.449Z,6.81
2019-02-12T01:22:22.581Z,6.75
2019-02-12T01:22:48.685Z,6.78
2019-02-12T01:23:14.787Z,6.77
2019-02-12T01:23:40.925Z,6.79
2019-02-12T01:24:07.025Z,6.77
2019-02-12T01:24:33.136Z,6.77
2019-02-12T01:24:59.289Z,6.75
2019-02-12T01:25:25.424Z,6.69
2019-02-12T01:25:51.553Z,6.77
2019-02-12T01:26:17.687Z,6.7
2019-02-12T01:26:43.788Z,6.7
2019-02-12T01:27:09.897Z,6.72
2019-02-12T01:27:36.005Z,6.78
2019-02-12T01:28:02.133Z,6.81
2019-02-12T01:28:28.236Z,6.79
2019-02-12T01:28:54.348Z,6.79
2019-02-12T01:29:20.507Z,6.74
2019-02-12T01:29:46.608Z,6.79
2019-02-12T01:30:12.746Z,6.81
2019-02-12T01:30:38.879Z,6.81
2019-02-12T01:31:04.988Z,6.78
2019-02-12T01:31:31.124Z,6.79
2019-02-12T01:31:57.231Z,6.78
2019-02-12T01:32:23.331Z,6.77
2019-02-12T01:32:49.461Z,6.79
2019-02-12T01:33:15.622Z,6.79
2019-02-12T01:33:41.775Z,6.81
2019-02-12T01:34:07.896Z,6.87
2019-02-12T01:34:34.007Z,6.75
2019-02-12T01:35:00.200Z,6.84
2019-02-12T01:35:26.294Z,6.74
2019-02-12T01:35:52.400Z,6.77
2019-02-12T01:36:18.507Z,6.84
2019-02-12T01:36:44.639Z,6.78
2019-02-12T01:37:10.745Z,6.77
2019-02-12T01:37:36.860Z,6.77
2019-02-12T01:38:03.016Z,6.78
2019-02-12T01:38:29.180Z,6.78
2019-02-12T01:38:55.285Z,6.87
2019-02-12T01:39:21.388Z,6.75
2019-02-12T01:39:47.491Z,6.78
2019-02-12T01:40:13.594Z,6.78
2019-02-12T01:40:39.730Z,6.87
2019-02-12T01:41:05.852Z,6.78
2019-02-12T01:41:31.955Z,6.78
2019-02-12T01:41:58.120Z,6.77
2019-02-12T01:42:24.220Z,6.79
2019-02-12T01:42:50.359Z,6.85
2019-02-12T01:43:16.492Z,6.92
2019-02-12T01:43:42.604Z,6.77
2019-02-12T01:44:08.729Z,6.75
2019-02-12T01:44:34.843Z,6.87
2019-02-12T01:45:00.974Z,6.74
2019-02-12T01:45:27.082Z,6.75
2019-02-12T01:45:53.211Z,6.78
2019-02-12T01:46:19.313Z,6.74
2019-02-12T01:46:45.423Z,6.79
2019-02-12T01:47:11.527Z,6.75
2019-02-12T01:47:37.643Z,6.75
2019-02-12T01:48:03.756Z,6.78
2019-02-12T01:48:29.848Z,6.82
2019-02-12T01:48:56.005Z,6.87
2019-02-12T01:49:22.115Z,6.84
2019-02-12T01:49:48.226Z,6.85
2019-02-12T01:50:14.385Z,6.85
2019-02-12T01:50:40.520Z,6.85
2019-02-12T01:51:06.628Z,6.78
2019-02-12T01:51:35.019Z,6.74
2019-02-12T01:51:59.885Z,6.85
2019-02-12T01:52:26.017Z,6.84
2019-02-12T01:52:52.150Z,6.78
2019-02-12T01:53:18.252Z,6.78
2019-02-12T01:53:44.355Z,6.82
2019-02-12T01:54:10.452Z,6.78
2019-02-12T01:54:36.571Z,6.78
2019-02-12T01:55:02.676Z,6.78
2019-02-12T01:55:28.797Z,6.81
2019-02-12T01:55:54.908Z,6.79
2019-02-12T01:56:21.012Z,6.77
2019-02-12T01:56:47.114Z,6.79
2019-02-12T01:57:13.223Z,6.87
2019-02-12T01:57:39.356Z,6.75
2019-02-12T01:58:05.493Z,6.75
2019-02-12T01:58:31.605Z,6.77
2019-02-12T01:58:57.711Z,6.77
2019-02-12T01:59:23.838Z,6.78
2019-02-12T01:59:49.976Z,6.84
2019-02-12T02:00:16.082Z,6.7
2019-02-12T02:00:42.218Z,6.75
2019-02-12T02:01:08.323Z,6.78
2019-02-12T02:01:34.426Z,6.77
2019-02-12T02:02:00.551Z,6.72
2019-02-12T02:02:26.678Z,6.78
2019-02-12T02:02:52.786Z,6.79
2019-02-12T02:03:18.911Z,6.75
2019-02-12T02:03:45.089Z,6.79
2019-02-12T02:04:11.242Z,6.79
2019-02-12T02:04:37.409Z,6.69
2019-02-12T02:05:03.476Z,6.75
2019-02-12T02:05:29.590Z,6.72
2019-02-12T02:05:55.722Z,6.74
2019-02-12T02:06:21.829Z,6.7
2019-02-12T02:06:47.935Z,6.72
2019-02-12T02:07:14.071Z,6.72
2019-02-12T02:07:40.171Z,6.75
2019-02-12T02:08:06.322Z,6.77
2019-02-12T02:08:32.424Z,6.78
2019-02-12T02:08:58.538Z,6.81
2019-02-12T02:09:24.671Z,6.79
2019-02-12T02:09:50.796Z,6.77
2019-02-12T02:10:16.930Z,6.81
2019-02-12T02:10:44.022Z,6.78
2019-02-12T02:11:10.129Z,6.77
2019-02-12T02:11:36.228Z,6.75
2019-02-12T02:12:02.339Z,6.81
2019-02-12T02:12:28.439Z,6.81
2019-02-12T02:12:54.555Z,6.78
2019-02-12T02:13:20.680Z,6.85
2019-02-12T02:13:46.796Z,6.84
2019-02-12T02:14:12.933Z,6.88
2019-02-12T02:14:39.031Z,6.78
2019-02-12T02:15:05.174Z,6.81
2019-02-12T02:15:31.277Z,6.77
2019-02-12T02:15:57.409Z,6.82
2019-02-12T02:16:23.513Z,6.79
2019-02-12T02:16:49.658Z,6.74
2019-02-12T02:17:15.757Z,6.74
2019-02-12T02:17:41.864Z,6.84
2019-02-12T02:18:07.992Z,6.81
2019-02-12T02:18:34.094Z,6.85
2019-02-12T02:19:00.198Z,6.85
2019-02-12T02:19:26.364Z,6.82
2019-02-12T02:19:52.496Z,6.89
2019-02-12T02:20:18.630Z,6.89
2019-02-12T02:20:44.739Z,6.85
2019-02-12T02:21:10.844Z,6.89
2019-02-12T02:21:43.856Z,6.82
2019-02-12T02:22:04.122Z,6.95
2019-02-12T02:22:30.255Z,6.88
2019-02-12T02:22:56.367Z,6.88
2019-02-12T02:23:22.468Z,6.96
2019-02-12T02:23:48.576Z,6.95
2019-02-12T02:24:14.679Z,6.97
2019-02-12T02:24:40.784Z,7.03
2019-02-12T02:25:06.892Z,6.99
2019-02-12T02:25:33.001Z,6.97
2019-02-12T02:25:59.105Z,6.96
2019-02-12T02:26:25.213Z,6.95
2019-02-12T02:26:51.315Z,6.93
2019-02-12T02:27:17.426Z,6.97
2019-02-12T02:27:43.529Z,6.99
2019-02-12T02:28:09.627Z,7
2019-02-12T02:28:35.741Z,6.99
2019-02-12T02:29:01.894Z,6.93
2019-02-12T02:29:27.998Z,7
2019-02-12T02:29:54.105Z,6.99
2019-02-12T02:30:20.213Z,6.96
2019-02-12T02:30:46.317Z,6.95
2019-02-12T02:31:12.427Z,6.87
2019-02-12T02:31:38.549Z,6.92
2019-02-12T02:32:04.678Z,6.92
2019-02-12T02:32:30.832Z,6.79
2019-02-12T02:32:56.942Z,6.75
2019-02-12T02:33:23.169Z,6.77
2019-02-12T02:33:49.222Z,6.77
2019-02-12T02:34:15.327Z,6.77
2019-02-12T02:34:41.449Z,6.77
2019-02-12T02:35:07.614Z,6.78
2019-02-12T02:35:33.743Z,6.79
2019-02-12T02:35:59.851Z,6.72
2019-02-12T02:36:25.987Z,6.77
2019-02-12T02:36:52.151Z,6.77
2019-02-12T02:37:18.280Z,6.75
2019-02-12T02:37:44.381Z,6.74
2019-02-12T02:38:10.506Z,6.75
2019-02-12T02:38:36.641Z,6.81
2019-02-12T02:39:02.743Z,6.84
2019-02-12T02:39:28.874Z,6.79
2019-02-12T02:39:55.003Z,6.7
2019-02-12T02:40:21.163Z,6.75
2019-02-12T02:40:47.293Z,6.74
2019-02-12T02:41:13.435Z,6.6
2019-02-12T02:41:39.597Z,6.64
2019-02-12T02:42:05.700Z,6.62
2019-02-12T02:42:31.829Z,6.66
2019-02-12T02:42:57.966Z,6.54
2019-02-12T02:43:24.076Z,6.62
2019-02-12T02:43:50.173Z,6.63
2019-02-12T02:44:16.286Z,6.74
2019-02-12T02:44:42.389Z,6.69
2019-02-12T02:45:08.517Z,6.67
2019-02-12T02:45:34.672Z,6.74
2019-02-12T02:46:00.779Z,6.75
2019-02-12T02:46:26.887Z,6.77
2019-02-12T02:46:53.022Z,6.72
2019-02-12T02:47:19.122Z,6.74
2019-02-12T02:47:45.222Z,6.75
2019-02-12T02:48:11.324Z,6.75
2019-02-12T02:48:37.431Z,6.82
2019-02-12T02:49:03.569Z,6.79
2019-02-12T02:49:29.671Z,6.84
2019-02-12T02:49:55.792Z,6.82
2019-02-12T02:50:22.898Z,6.79
2019-02-12T02:50:49.035Z,6.77
2019-02-12T02:51:15.128Z,6.81
2019-02-12T02:51:41.259Z,6.78
2019-02-12T02:52:09.395Z,6.78
2019-02-12T02:52:35.507Z,6.84
2019-02-12T02:53:01.613Z,6.79
2019-02-12T02:53:27.780Z,6.85
2019-02-12T02:53:53.941Z,6.84
2019-02-12T02:54:20.007Z,6.82
2019-02-12T02:54:46.111Z,6.88
2019-02-12T02:55:12.245Z,6.78
2019-02-12T02:55:38.404Z,6.82
2019-02-12T02:56:04.535Z,6.88
2019-02-12T02:56:30.645Z,6.82
2019-02-12T02:56:56.785Z,6.85
2019-02-12T02:57:22.891Z,6.74
2019-02-12T02:57:48.989Z,6.84
2019-02-12T02:58:15.123Z,6.75
2019-02-12T02:58:41.262Z,6.75
2019-02-12T02:59:07.369Z,6.77
2019-02-12T02:59:33.504Z,6.77
2019-02-12T02:59:59.607Z,6.74
2019-02-12T03:00:25.711Z,6.72
2019-02-12T03:00:51.816Z,6.75
2019-02-12T03:01:17.950Z,6.75
2019-02-12T03:01:44.051Z,6.78
2019-02-12T03:02:10.158Z,6.64
2019-02-12T03:02:36.257Z,6.72
2019-02-12T03:03:02.370Z,6.69
2019-02-12T03:03:28.476Z,6.7
2019-02-12T03:03:54.646Z,6.74
2019-02-12T03:04:20.745Z,6.72
2019-02-12T03:04:46.877Z,6.74
2019-02-12T03:05:13.005Z,6.72
2019-02-12T03:05:39.105Z,6.75
2019-02-12T03:06:05.233Z,6.69
2019-02-12T03:06:31.344Z,6.63
2019-02-12T03:06:57.444Z,6.67
2019-02-12T03:07:23.581Z,6.72
2019-02-12T03:07:49.706Z,6.62
2019-02-12T03:08:15.843Z,6.67
2019-02-12T03:08:41.975Z,6.7
2019-02-12T03:09:08.135Z,6.67
2019-02-12T03:09:34.240Z,6.75
2019-02-12T03:10:00.341Z,6.6
2019-02-12T03:10:26.504Z,6.6
2019-02-12T03:10:52.656Z,6.7
2019-02-12T03:11:18.765Z,6.64
2019-02-12T03:11:44.898Z,6.74
2019-02-12T03:12:11.031Z,6.72
2019-02-12T03:12:37.194Z,6.69
2019-02-12T03:13:03.298Z,6.7
2019-02-12T03:13:29.398Z,6.57
2019-02-12T03:13:55.540Z,6.59
2019-02-12T03:14:21.685Z,6.67
2019-02-12T03:14:47.781Z,6.7
2019-02-12T03:15:13.893Z,6.75
2019-02-12T03:15:39.991Z,6.72
2019-02-12T03:16:06.128Z,6.75
2019-02-12T03:16:32.263Z,6.67
2019-02-12T03:16:58.366Z,6.77
2019-02-12T03:17:24.473Z,6.62
2019-02-12T03:17:50.584Z,6.7
2019-02-12T03:18:16.744Z,6.7
2019-02-12T03:18:42.872Z,6.74
2019-02-12T03:19:09.032Z,6.66
2019-02-12T03:19:35.166Z,6.59
2019-02-12T03:20:01.272Z,6.57
2019-02-12T03:20:27.380Z,6.6
2019-02-12T03:20:53.484Z,6.62
2019-02-12T03:21:19.580Z,6.67
2019-02-12T03:21:45.701Z,6.59
2019-02-12T03:22:12.841Z,6.6
2019-02-12T03:22:38.944Z,6.54
2019-02-12T03:23:05.082Z,6.62
2019-02-12T03:23:31.187Z,6.52
2019-02-12T03:23:57.313Z,6.57
2019-02-12T03:24:23.455Z,6.51
2019-02-12T03:24:49.593Z,6.57
2019-02-12T03:25:15.718Z,6.54
2019-02-12T03:25:41.856Z,6.49
2019-02-12T03:26:08.012Z,6.57
2019-02-12T03:26:34.138Z,6.49
2019-02-12T03:27:00.245Z,6.49
2019-02-12T03:27:26.411Z,6.51
2019-02-12T03:27:52.502Z,6.57
2019-02-12T03:28:18.678Z,6.49
2019-02-12T03:28:44.813Z,6.51
2019-02-12T03:29:10.951Z,6.52
2019-02-12T03:29:37.093Z,6.57
2019-02-12T03:30:03.197Z,6.52
2019-02-12T03:30:29.330Z,6.51
2019-02-12T03:30:55.494Z,6.46
2019-02-12T03:31:21.578Z,6.51
2019-02-12T03:31:47.740Z,6.48
2019-02-12T03:32:13.895Z,6.54
2019-02-12T03:32:40.090Z,6.54
2019-02-12T03:33:06.266Z,6.56
2019-02-12T03:33:32.539Z,6.52
2019-02-12T03:33:58.587Z,6.59
2019-02-12T03:34:24.722Z,6.56
2019-02-12T03:34:50.853Z,6.59
2019-02-12T03:35:16.964Z,6.6
2019-02-12T03:35:43.086Z,6.54
2019-02-12T03:36:09.252Z,6.51
2019-02-12T03:36:35.350Z,6.52
2019-02-12T03:37:01.455Z,6.54
2019-02-12T03:37:27.583Z,6.54
2019-02-12T03:37:53.772Z,6.41
2019-02-12T03:38:19.873Z,6.45
2019-02-12T03:38:45.981Z,6.46
2019-02-12T03:39:12.113Z,6.46
2019-02-12T03:39:38.238Z,6.46
2019-02-12T03:40:04.349Z,6.38
2019-02-12T03:40:30.474Z,6.36
2019-02-12T03:40:56.617Z,6.31
2019-02-12T03:41:22.718Z,6.31
2019-02-12T03:41:48.853Z,6.31
2019-02-12T03:42:15.007Z,6.33
2019-02-12T03:42:41.145Z,6.3
2019-02-12T03:43:07.303Z,6.38
2019-02-12T03:43:33.411Z,6.36
2019-02-12T03:43:59.593Z,6.35
2019-02-12T03:44:25.743Z,6.3
2019-02-12T03:44:51.846Z,6.27
2019-02-12T03:45:17.968Z,6.26
2019-02-12T03:45:44.106Z,6.31
2019-02-12T03:46:10.236Z,6.27
2019-02-12T03:46:36.335Z,6.22
2019-02-12T03:47:02.441Z,6.27
2019-02-12T03:47:28.623Z,6.26
2019-02-12T03:47:54.711Z,6.27
2019-02-12T03:48:21.246Z,6.26
2019-02-12T03:48:47.364Z,6.24
2019-02-12T03:49:13.492Z,6.26
2019-02-12T03:49:39.624Z,6.22
2019-02-12T03:50:05.728Z,6.28
2019-02-12T03:50:31.890Z,6.26
2019-02-12T03:50:58.014Z,6.22
2019-02-12T03:51:24.177Z,6.26
2019-02-12T03:51:50.289Z,6.35
2019-02-12T03:52:17.407Z,6.31
2019-02-12T03:52:43.567Z,6.28
2019-02-12T03:53:09.669Z,6.24
2019-02-12T03:53:35.775Z,6.24
2019-02-12T03:54:01.908Z,6.24
2019-02-12T03:54:28.066Z,6.27
2019-02-12T03:54:54.176Z,6.27
2019-02-12T03:55:20.280Z,6.28
2019-02-12T03:55:46.407Z,6.3
2019-02-12T03:56:12.510Z,6.22
2019-02-12T03:56:38.643Z,6.27
2019-02-12T03:57:04.748Z,6.19
2019-02-12T03:57:30.884Z,6.28
2019-02-12T03:57:57.013Z,6.3
2019-02-12T03:58:23.146Z,6.28
2019-02-12T03:58:49.269Z,6.31
2019-02-12T03:59:15.407Z,6.24
2019-02-12T03:59:41.515Z,6.24
2019-02-12T04:00:07.647Z,6.26
2019-02-12T04:00:33.820Z,6.24
2019-02-12T04:00:59.965Z,6.26
2019-02-12T04:01:26.075Z,6.22
2019-02-12T04:01:52.183Z,6.2
2019-02-12T04:02:18.287Z,6.26
2019-02-12T04:02:44.394Z,6.3
2019-02-12T04:03:10.554Z,6.24
2019-02-12T04:03:36.815Z,6.28
2019-02-12T04:04:02.810Z,6.28
2019-02-12T04:04:28.922Z,6.27
2019-02-12T04:04:55.024Z,6.31
2019-02-12T04:05:21.321Z,6.27
2019-02-12T04:05:47.440Z,6.27
2019-02-12T04:06:13.528Z,6.27
2019-02-12T04:06:39.661Z,6.35
2019-02-12T04:07:05.761Z,6.22
2019-02-12T04:07:31.897Z,6.22
2019-02-12T04:07:58.012Z,6.28
2019-02-12T04:08:24.122Z,6.27
2019-02-12T04:08:50.226Z,6.3
2019-02-12T04:09:16.368Z,6.27
2019-02-12T04:09:42.458Z,6.22
2019-02-12T04:10:08.601Z,6.28
2019-02-12T04:10:34.699Z,6.2
2019-02-12T04:11:00.798Z,6.24
2019-02-12T04:11:26.936Z,6.24
2019-02-12T04:11:53.048Z,6.31
2019-02-12T04:12:19.184Z,6.28
2019-02-12T04:12:45.293Z,6.26
2019-02-12T04:13:11.412Z,6.22
2019-02-12T04:13:37.506Z,6.26
2019-02-12T04:14:03.615Z,6.28
2019-02-12T04:14:29.775Z,6.22
2019-02-12T04:14:55.904Z,6.24
2019-02-12T04:15:22.009Z,6.27
2019-02-12T04:15:48.114Z,6.22
2019-02-12T04:16:14.248Z,6.27
2019-02-12T04:16:40.346Z,6.27
2019-02-12T04:17:06.449Z,6.24
2019-02-12T04:17:32.553Z,6.27
2019-02-12T04:17:58.663Z,6.26
2019-02-12T04:18:24.762Z,6.2
2019-02-12T04:18:50.897Z,6.33
2019-02-12T04:19:16.994Z,6.3
2019-02-12T04:19:43.099Z,6.3
2019-02-12T04:20:09.201Z,6.27
2019-02-12T04:20:35.346Z,6.24
2019-02-12T04:21:01.510Z,6.26
2019-02-12T04:21:27.639Z,6.22
2019-02-12T04:21:53.804Z,6.3
2019-02-12T04:22:22.694Z,6.38
2019-02-12T04:22:48.054Z,6.3
2019-02-12T04:23:14.148Z,6.35
2019-02-12T04:23:40.257Z,6.36
2019-02-12T04:24:06.385Z,6.3
2019-02-12T04:24:32.495Z,6.35
2019-02-12T04:24:58.598Z,6.31
2019-02-12T04:25:24.734Z,6.28
2019-02-12T04:25:50.837Z,6.3
2019-02-12T04:26:16.951Z,6.31
2019-02-12T04:26:43.058Z,6.27
2019-02-12T04:27:09.162Z,6.35
2019-02-12T04:27:35.262Z,6.38
2019-02-12T04:28:01.410Z,6.38
2019-02-12T04:28:27.497Z,6.3
2019-02-12T04:28:53.613Z,6.3
2019-02-12T04:29:19.712Z,6.38
2019-02-12T04:29:45.815Z,6.35
2019-02-12T04:30:11.987Z,6.36
2019-02-12T04:30:38.144Z,6.27
2019-02-12T04:31:04.280Z,6.35
2019-02-12T04:31:30.384Z,6.33
2019-02-12T04:31:56.486Z,6.3
2019-02-12T04:32:22.599Z,6.33
2019-02-12T04:32:48.702Z,6.36
2019-02-12T04:33:14.895Z,6.35
2019-02-12T04:33:40.961Z,6.27
2019-02-12T04:34:07.098Z,6.24
2019-02-12T04:34:33.238Z,6.22
2019-02-12T04:34:59.373Z,6.28
2019-02-12T04:35:25.517Z,6.28
2019-02-12T04:35:51.644Z,6.27
2019-02-12T04:36:17.782Z,6.19
2019-02-12T04:36:43.918Z,6.17
2019-02-12T04:37:10.045Z,6.2
2019-02-12T04:37:36.177Z,6.2
2019-02-12T04:38:02.317Z,6.2
2019-02-12T04:38:28.420Z,6.14
2019-02-12T04:38:54.520Z,6.16
2019-02-12T04:39:20.689Z,6.16
2019-02-12T04:39:46.802Z,6.2
2019-02-12T04:40:12.899Z,6.17
2019-02-12T04:40:39.002Z,6.19
2019-02-12T04:41:05.104Z,6.14
2019-02-12T04:41:31.210Z,6.11
2019-02-12T04:41:57.304Z,6.12
2019-02-12T04:42:23.434Z,6.05
2019-02-12T04:42:49.536Z,6.12
2019-02-12T04:43:15.638Z,6.07
2019-02-12T04:43:41.740Z,6.09
2019-02-12T04:44:07.849Z,6.08
2019-02-12T04:44:33.948Z,6.07
2019-02-12T04:45:00.230Z,6.08
2019-02-12T04:45:26.338Z,6.09
2019-02-12T04:45:52.436Z,6.04
2019-02-12T04:46:18.570Z,6.05
2019-02-12T04:46:44.703Z,6.04
2019-02-12T04:47:10.812Z,6.05
2019-02-12T04:47:36.920Z,5.99
2019-02-12T04:48:03.049Z,5.93
2019-02-12T04:48:29.180Z,5.89
2019-02-12T04:48:55.308Z,5.94
2019-02-12T04:49:21.416Z,5.97
2019-02-12T04:49:47.513Z,5.89
2019-02-12T04:50:13.726Z,5.93
2019-02-12T04:50:39.788Z,5.89
2019-02-12T04:51:05.934Z,5.87
2019-02-12T04:51:32.070Z,5.82
2019-02-12T04:51:58.208Z,5.86
2019-02-12T04:52:31.699Z,5.84
2019-02-12T04:52:52.455Z,5.86
2019-02-12T04:53:18.594Z,5.8
2019-02-12T04:53:44.698Z,5.84
2019-02-12T04:54:10.802Z,5.87
2019-02-12T04:54:36.910Z,5.86
2019-02-12T04:55:03.014Z,5.89
2019-02-12T04:55:29.115Z,5.83
2019-02-12T04:55:55.245Z,5.8
2019-02-12T04:56:21.349Z,5.86
2019-02-12T04:56:47.478Z,5.76
2019-02-12T04:57:13.606Z,5.84
2019-02-12T04:57:39.708Z,5.75
2019-02-12T04:58:05.858Z,5.76
2019-02-12T04:58:31.958Z,5.87
2019-02-12T04:58:58.096Z,5.84
2019-02-12T04:59:24.202Z,5.82
2019-02-12T04:59:50.323Z,5.87
2019-02-12T05:00:16.550Z,5.86
2019-02-12T05:00:42.679Z,5.87
2019-02-12T05:01:09.774Z,5.84
2019-02-12T05:01:35.906Z,5.82
2019-02-12T05:02:02.036Z,5.73
2019-02-12T05:02:28.136Z,5.68
2019-02-12T05:02:54.262Z,5.71
2019-02-12T05:03:20.372Z,5.79
2019-02-12T05:03:46.506Z,5.72
2019-02-12T05:04:12.633Z,5.79
2019-02-12T05:04:38.765Z,5.76
2019-02-12T05:05:04.878Z,5.76
2019-02-12T05:05:31.033Z,5.69
2019-02-12T05:05:57.139Z,5.72
2019-02-12T05:06:23.296Z,5.66
2019-02-12T05:06:49.401Z,5.65
2019-02-12T05:07:15.562Z,5.76
2019-02-12T05:07:41.669Z,5.68
2019-02-12T05:08:07.772Z,5.79
2019-02-12T05:08:33.877Z,5.76
2019-02-12T05:08:59.980Z,5.71
2019-02-12T05:09:26.141Z,5.72
2019-02-12T05:09:52.282Z,5.72
2019-02-12T05:10:18.418Z,5.68
2019-02-12T05:10:44.573Z,5.69
2019-02-12T05:11:10.681Z,5.68
2019-02-12T05:11:36.820Z,5.69
2019-02-12T05:12:02.985Z,5.64
2019-02-12T05:12:29.087Z,5.69
2019-02-12T05:12:55.217Z,5.68
2019-02-12T05:13:21.336Z,5.72
2019-02-12T05:13:47.465Z,5.71
2019-02-12T05:14:13.621Z,5.72
2019-02-12T05:14:39.750Z,5.69
2019-02-12T05:15:05.859Z,5.79
2019-02-12T05:15:31.968Z,5.72
2019-02-12T05:15:58.094Z,5.69
2019-02-12T05:16:24.200Z,5.72
2019-02-12T05:16:50.301Z,5.68
2019-02-12T05:17:16.431Z,5.71
2019-02-12T05:17:42.543Z,5.69
2019-02-12T05:18:08.650Z,5.71
2019-02-12T05:18:34.802Z,5.66
2019-02-12T05:19:01.180Z,5.73
2019-02-12T05:19:27.287Z,5.69
2019-02-12T05:19:53.394Z,5.65
2019-02-12T05:20:19.501Z,5.71
2019-02-12T05:20:45.604Z,5.65
2019-02-12T05:21:11.705Z,5.69
2019-02-12T05:21:37.843Z,5.66
2019-02-12T05:22:03.946Z,5.62
2019-02-12T05:22:30.078Z,5.66
2019-02-12T05:22:57.202Z,5.69
2019-02-12T05:23:23.313Z,5.64
2019-02-12T05:23:49.416Z,5.66
2019-02-12T05:24:15.547Z,5.71
2019-02-12T05:24:41.685Z,5.66
2019-02-12T05:25:07.837Z,5.65
2019-02-12T05:25:33.937Z,5.61
2019-02-12T05:26:00.043Z,5.66
2019-02-12T05:26:26.143Z,5.69
2019-02-12T05:26:52.245Z,5.69
2019-02-12T05:27:18.376Z,5.68
2019-02-12T05:27:44.477Z,5.65
2019-02-12T05:28:10.639Z,5.66
2019-02-12T05:28:36.766Z,5.69
2019-02-12T05:29:02.868Z,5.71
2019-02-12T05:29:29.004Z,5.65
2019-02-12T05:29:55.138Z,5.66
2019-02-12T05:30:21.346Z,5.69
2019-02-12T05:30:47.453Z,5.68
2019-02-12T05:31:13.586Z,5.65
2019-02-12T05:31:39.692Z,5.64
2019-02-12T05:32:05.860Z,5.66
2019-02-12T05:32:31.986Z,5.71
2019-02-12T05:32:58.114Z,5.69
2019-02-12T05:33:24.247Z,5.64
2019-02-12T05:33:50.353Z,5.57
2019-02-12T05:34:16.514Z,5.68
2019-02-12T05:34:42.662Z,5.62
2019-02-12T05:35:08.801Z,5.68
2019-02-12T05:35:34.899Z,5.61
2019-02-12T05:36:01.004Z,5.62
2019-02-12T05:36:27.104Z,5.68
2019-02-12T05:36:53.236Z,5.62
2019-02-12T05:37:19.336Z,5.68
2019-02-12T05:37:45.440Z,5.64
2019-02-12T05:38:11.543Z,5.62
2019-02-12T05:38:37.705Z,5.69
2019-02-12T05:39:03.816Z,5.71
2019-02-12T05:39:29.946Z,5.72
2019-02-12T05:39:56.047Z,5.72
2019-02-12T05:40:22.182Z,5.71
2019-02-12T05:40:48.283Z,5.71
2019-02-12T05:41:14.417Z,5.66
2019-02-12T05:41:40.555Z,5.8
2019-02-12T05:42:06.683Z,5.71
2019-02-12T05:42:32.786Z,5.71
2019-02-12T05:42:58.917Z,5.68
2019-02-12T05:43:25.017Z,5.71
2019-02-12T05:43:51.151Z,5.72
2019-02-12T05:44:17.325Z,5.75
2019-02-12T05:44:43.380Z,5.62
2019-02-12T05:45:09.491Z,5.66
2019-02-12T05:45:35.599Z,5.8
2019-02-12T05:46:01.760Z,5.69
2019-02-12T05:46:27.896Z,5.69
2019-02-12T05:46:54.028Z,5.71
2019-02-12T05:47:21.151Z,5.68
2019-02-12T05:47:47.254Z,5.72
2019-02-12T05:48:13.392Z,5.65
2019-02-12T05:48:39.525Z,5.73
2019-02-12T05:49:05.623Z,5.65